Terminal Aerodrome Forecast
Issued by NWS

Home | Current Version | Previous Version | Text Only | Print | Product List | Glossary On
Versions: 1 2 3 4 5 6 7 8 9 10 11 12 13 14 15 16 17
000
FTUS43 KMQT 021732
TAFSAW
TAF
KSAW 021732Z 0218/0318 25009KT P6SM -SHRA SCT030 BKN040
     FM022000 32007KT P6SM VCSH BKN070
     FM022300 36006KT P6SM SCT070
     FM030200 29005KT P6SM FEW070
     FM031200 31007KT P6SM BKN060
     FM031600 32009KT P6SM VCSH BKN050=

USA.gov is the U.S. government's official web portal to all federal, state and local government web resources and services.